createdAt,value
2019-02-10T00:00:40.526Z,0.00
2019-02-10T00:01:40.577Z,0.00
2019-02-10T00:03:33.555Z,0.00
2019-02-10T00:04:33.612Z,0.00
2019-02-10T00:06:26.599Z,0.00
2019-02-10T00:07:26.647Z,0.00
2019-02-10T00:09:19.633Z,0.00
2019-02-10T00:10:19.679Z,0.00
2019-02-10T00:12:12.657Z,0.00
2019-02-10T00:13:12.712Z,0.00
2019-02-10T00:15:05.700Z,0.00
2019-02-10T00:16:05.747Z,0.00
2019-02-10T00:17:58.729Z,0.00
2019-02-10T00:18:58.784Z,0.00
2019-02-10T00:20:51.792Z,0.00
2019-02-10T00:21:51.820Z,0.00
2019-02-10T00:23:44.795Z,0.00
2019-02-10T00:24:44.852Z,0.00
2019-02-10T00:26:37.840Z,0.00
2019-02-10T00:27:37.888Z,0.00
2019-02-10T00:29:30.879Z,0.00
2019-02-10T00:30:30.932Z,0.00
2019-02-10T00:32:23.924Z,0.00
2019-02-10T00:33:23.983Z,0.00
2019-02-10T00:35:16.982Z,0.00
2019-02-10T00:36:17.011Z,0.00
2019-02-10T00:38:09.987Z,0.00
2019-02-10T00:39:10.045Z,0.00
2019-02-10T00:41:03.031Z,0.00
2019-02-10T00:42:03.079Z,0.00
2019-02-10T00:43:56.067Z,0.00
2019-02-10T00:44:56.117Z,0.00
2019-02-10T00:46:49.616Z,0.00
2019-02-10T00:47:49.660Z,0.00
2019-02-10T00:49:42.652Z,0.00
2019-02-10T00:50:42.696Z,0.00
2019-02-10T00:52:35.679Z,0.00
2019-02-10T00:53:35.739Z,0.00
2019-02-10T00:55:28.712Z,0.00
2019-02-10T00:56:28.768Z,0.00
2019-02-10T00:58:21.750Z,0.00
2019-02-10T00:59:21.804Z,0.00
2019-02-10T01:01:14.793Z,0.00
2019-02-10T01:02:14.840Z,0.00
2019-02-10T01:04:07.815Z,0.00
2019-02-10T01:05:07.875Z,0.00
2019-02-10T01:07:00.855Z,0.00
2019-02-10T01:08:00.906Z,0.00
2019-02-10T01:09:53.885Z,0.00
2019-02-10T01:10:53.937Z,0.00
2019-02-10T01:12:46.923Z,0.00
2019-02-10T01:13:46.976Z,0.00
2019-02-10T01:15:39.964Z,0.00
2019-02-10T01:16:40.013Z,0.00
2019-02-10T01:18:33.010Z,0.00
2019-02-10T01:19:33.069Z,0.00
2019-02-10T01:21:26.051Z,0.00
2019-02-10T01:22:26.172Z,0.00
2019-02-10T01:24:19.078Z,0.00
2019-02-10T01:25:19.134Z,0.00
2019-02-10T01:27:12.140Z,0.00
2019-02-10T01:28:12.165Z,0.00
2019-02-10T01:30:05.153Z,0.00
2019-02-10T01:31:05.196Z,0.00
2019-02-10T01:32:58.180Z,0.00
2019-02-10T01:33:58.237Z,0.00
2019-02-10T01:35:51.226Z,0.00
2019-02-10T01:36:51.275Z,0.00
2019-02-10T01:38:44.251Z,0.00
2019-02-10T01:39:44.310Z,0.00
2019-02-10T01:41:37.295Z,0.00
2019-02-10T01:42:37.347Z,0.00
2019-02-10T01:44:30.350Z,0.00
2019-02-10T01:45:30.422Z,0.00
2019-02-10T01:47:23.360Z,0.00
2019-02-10T01:48:23.421Z,0.00
2019-02-10T01:50:16.409Z,0.00
2019-02-10T01:51:16.458Z,0.00
2019-02-10T01:53:09.437Z,0.00
2019-02-10T01:54:09.489Z,0.00
2019-02-10T01:56:02.479Z,0.00
2019-02-10T01:57:02.530Z,0.00
2019-02-10T01:58:55.516Z,0.00
2019-02-10T01:59:55.562Z,0.00
2019-02-10T02:01:48.545Z,0.00
2019-02-10T02:02:48.596Z,0.00
2019-02-10T02:04:41.573Z,0.00
2019-02-10T02:05:41.630Z,0.00
2019-02-10T02:07:35.123Z,0.00
2019-02-10T02:08:35.170Z,0.00
2019-02-10T02:10:28.166Z,0.00
2019-02-10T02:11:28.211Z,0.00
2019-02-10T02:13:21.190Z,0.00
2019-02-10T02:14:21.251Z,0.00
2019-02-10T02:16:14.241Z,0.00
2019-02-10T02:17:14.278Z,0.00
2019-02-10T02:19:07.268Z,0.00
2019-02-10T02:20:07.312Z,0.00
2019-02-10T02:22:00.299Z,0.00
2019-02-10T02:23:00.342Z,0.00
2019-02-10T02:24:53.326Z,0.00
2019-02-10T02:25:53.378Z,0.00
2019-02-10T02:27:46.358Z,0.00
2019-02-10T02:28:46.409Z,0.00
2019-02-10T02:30:39.398Z,0.00
2019-02-10T02:31:39.443Z,0.00
2019-02-10T02:33:32.417Z,0.00
2019-02-10T02:34:32.477Z,0.00
2019-02-10T02:36:25.457Z,0.00
2019-02-10T02:37:25.514Z,0.00
2019-02-10T02:39:18.487Z,0.00
2019-02-10T02:40:18.548Z,0.00
2019-02-10T02:42:11.544Z,0.00
2019-02-10T02:43:11.596Z,0.00
2019-02-10T02:45:04.570Z,0.00
2019-02-10T02:46:04.630Z,0.00
2019-02-10T02:47:57.615Z,0.00
2019-02-10T02:48:57.665Z,0.00
2019-02-10T02:50:50.676Z,0.00
2019-02-10T02:51:50.709Z,0.00
2019-02-10T02:53:43.678Z,0.00
2019-02-10T02:54:43.761Z,0.00
2019-02-10T02:56:36.727Z,0.00
2019-02-10T02:57:36.779Z,0.00
2019-02-10T02:59:29.758Z,0.00
2019-02-10T03:00:29.812Z,0.00
2019-02-10T03:02:22.794Z,0.00
2019-02-10T03:03:22.846Z,0.00
2019-02-10T03:05:15.823Z,0.00
2019-02-10T03:06:15.880Z,0.00
2019-02-10T03:08:09.373Z,0.00
2019-02-10T03:09:09.458Z,0.00
2019-02-10T03:11:02.421Z,0.00
2019-02-10T03:12:02.450Z,0.00
2019-02-10T03:13:55.430Z,0.00
2019-02-10T03:14:55.507Z,0.00
2019-02-10T03:16:48.471Z,0.00
2019-02-10T03:17:48.522Z,0.00
2019-02-10T03:19:41.503Z,0.00
2019-02-10T03:20:41.554Z,0.00
2019-02-10T03:22:34.543Z,0.00
2019-02-10T03:23:34.601Z,0.00
2019-02-10T03:25:27.577Z,0.00
2019-02-10T03:26:27.630Z,0.00
2019-02-10T03:28:20.622Z,0.00
2019-02-10T03:29:20.670Z,0.00
2019-02-10T03:31:13.672Z,0.00
2019-02-10T03:32:13.768Z,0.00
2019-02-10T03:34:06.685Z,0.00
2019-02-10T03:35:06.741Z,0.00
2019-02-10T03:36:59.725Z,0.00
2019-02-10T03:37:59.774Z,0.00
2019-02-10T03:39:52.758Z,0.00
2019-02-10T03:40:52.820Z,0.00
2019-02-10T03:42:45.803Z,0.00
2019-02-10T03:43:45.851Z,0.00
2019-02-10T03:45:38.830Z,0.00
2019-02-10T03:46:38.889Z,0.00
2019-02-10T03:48:31.870Z,0.00
2019-02-10T03:49:31.918Z,0.00
2019-02-10T03:51:24.906Z,0.00
2019-02-10T03:52:24.952Z,0.00
2019-02-10T03:54:17.927Z,0.00
2019-02-10T03:55:17.982Z,0.00
2019-02-10T03:57:10.967Z,0.00
2019-02-10T03:58:11.015Z,0.00
2019-02-10T04:00:03.999Z,0.00
2019-02-10T04:01:04.050Z,0.00
2019-02-10T04:02:57.034Z,0.00
2019-02-10T04:03:57.077Z,0.00
2019-02-10T04:05:50.057Z,0.00
2019-02-10T04:06:50.112Z,0.00
2019-02-10T04:08:43.101Z,0.00
2019-02-10T04:09:43.153Z,0.00
2019-02-10T04:11:36.139Z,0.00
2019-02-10T04:12:36.183Z,0.00
2019-02-10T04:14:29.185Z,0.00
2019-02-10T04:15:29.221Z,0.00
2019-02-10T04:17:22.210Z,0.00
2019-02-10T04:18:22.272Z,0.00
2019-02-10T04:20:15.231Z,0.00
2019-02-10T04:21:15.289Z,0.00
2019-02-10T04:23:08.274Z,0.00
2019-02-10T04:24:08.323Z,0.00
2019-02-10T04:26:01.300Z,0.00
2019-02-10T04:27:01.360Z,0.00
2019-02-10T04:28:54.340Z,0.00
2019-02-10T04:29:54.390Z,0.00
2019-02-10T04:31:47.372Z,0.00
2019-02-10T04:32:47.420Z,0.00
2019-02-10T04:34:40.405Z,0.00
2019-02-10T04:35:40.463Z,0.00
2019-02-10T04:37:33.458Z,0.00
2019-02-10T04:38:33.506Z,0.00
2019-02-10T04:40:26.481Z,0.00
2019-02-10T04:41:26.541Z,0.00
2019-02-10T04:43:19.535Z,0.00
2019-02-10T04:44:19.571Z,0.00
2019-02-10T04:46:12.569Z,0.00
2019-02-10T04:47:12.603Z,0.00
2019-02-10T04:49:05.583Z,0.00
2019-02-10T04:50:05.654Z,0.00
2019-02-10T04:51:58.634Z,0.00
2019-02-10T04:52:58.677Z,0.00
2019-02-10T04:54:51.666Z,0.00
2019-02-10T04:55:51.708Z,0.00
2019-02-10T04:57:44.702Z,0.00
2019-02-10T04:58:44.745Z,0.00
2019-02-10T05:00:37.717Z,0.00
2019-02-10T05:01:37.774Z,0.00
2019-02-10T05:03:30.760Z,0.00
2019-02-10T05:04:30.808Z,0.00
2019-02-10T05:06:23.786Z,0.00
2019-02-10T05:07:23.846Z,0.00
2019-02-10T05:09:16.827Z,0.00
2019-02-10T05:10:16.873Z,0.00
2019-02-10T05:12:09.859Z,0.00
2019-02-10T05:13:09.908Z,0.00
2019-02-10T05:15:02.884Z,0.00
2019-02-10T05:16:02.944Z,0.00
2019-02-10T05:17:55.939Z,0.00
2019-02-10T05:18:55.972Z,0.00
2019-02-10T05:20:48.957Z,0.00
2019-02-10T05:21:49.029Z,0.00
2019-02-10T05:23:41.994Z,0.00
2019-02-10T05:24:42.046Z,0.00
2019-02-10T05:26:35.022Z,0.00
2019-02-10T05:27:35.075Z,0.00
2019-02-10T05:29:28.080Z,0.00
2019-02-10T05:30:28.106Z,0.00
2019-02-10T05:32:21.087Z,0.00
2019-02-10T05:33:21.216Z,0.00
2019-02-10T05:35:14.117Z,0.00
2019-02-10T05:36:14.173Z,0.00
2019-02-10T05:38:07.153Z,0.00
2019-02-10T05:39:07.203Z,0.00
2019-02-10T05:41:00.193Z,0.00
2019-02-10T05:42:00.247Z,0.00
2019-02-10T05:43:54.729Z,0.00
2019-02-10T05:44:54.780Z,0.00
2019-02-10T05:46:47.746Z,0.00
2019-02-10T05:47:47.806Z,0.00
2019-02-10T05:49:40.795Z,0.00
2019-02-10T05:50:40.841Z,0.00
2019-02-10T05:52:33.830Z,0.00
2019-02-10T05:53:33.876Z,0.00
2019-02-10T05:55:26.851Z,0.00
2019-02-10T05:56:26.907Z,0.00
2019-02-10T05:58:19.952Z,0.00
2019-02-10T05:59:19.941Z,0.00
2019-02-10T06:01:12.919Z,0.00
2019-02-10T06:02:12.969Z,0.00
2019-02-10T06:04:05.968Z,0.00
2019-02-10T06:05:06.007Z,0.00
2019-02-10T06:06:58.985Z,0.00
2019-02-10T06:07:59.052Z,0.00
2019-02-10T06:09:52.026Z,0.00
2019-02-10T06:10:52.072Z,0.00
2019-02-10T06:12:45.053Z,0.00
2019-02-10T06:13:45.102Z,0.00
2019-02-10T06:15:38.086Z,0.00
2019-02-10T06:16:38.137Z,0.00
2019-02-10T06:18:31.119Z,0.00
2019-02-10T06:19:31.172Z,0.00
2019-02-10T06:21:24.159Z,0.00
2019-02-10T06:22:24.209Z,0.00
2019-02-10T06:24:17.198Z,0.00
2019-02-10T06:25:17.248Z,0.00
2019-02-10T06:27:10.220Z,0.00
2019-02-10T06:28:10.280Z,0.00
2019-02-10T06:30:03.259Z,0.00
2019-02-10T06:31:03.311Z,0.00
2019-02-10T06:32:56.298Z,0.00
2019-02-10T06:33:56.343Z,0.00
2019-02-10T06:35:49.320Z,0.00
2019-02-10T06:36:49.377Z,0.00
2019-02-10T06:38:42.363Z,4.00
2019-02-10T06:39:42.411Z,4.00
2019-02-10T06:41:35.382Z,4.00
2019-02-10T06:42:35.437Z,4.00
2019-02-10T06:44:28.421Z,8.00
2019-02-10T06:45:28.467Z,8.00
2019-02-10T06:47:21.441Z,8.00
2019-02-10T06:48:21.742Z,8.00
2019-02-10T06:50:14.479Z,12.00
2019-02-10T06:51:14.527Z,12.00
2019-02-10T06:53:07.509Z,12.00
2019-02-10T06:54:07.558Z,8.00
2019-02-10T06:56:00.533Z,16.00
2019-02-10T06:57:00.588Z,24.00
2019-02-10T06:58:53.581Z,24.00
2019-02-10T06:59:53.630Z,32.00
2019-02-10T07:01:46.604Z,40.00
2019-02-10T07:02:46.659Z,36.00
2019-02-10T07:04:39.641Z,40.00
2019-02-10T07:05:39.691Z,64.00
2019-02-10T07:07:33.176Z,48.00
2019-02-10T07:08:33.229Z,60.00
2019-02-10T07:10:26.211Z,76.00
2019-02-10T07:11:26.262Z,76.00
2019-02-10T07:13:19.248Z,116.00
2019-02-10T07:14:19.291Z,128.00
2019-02-10T07:16:12.267Z,192.00
2019-02-10T07:17:12.336Z,168.00
2019-02-10T07:19:05.308Z,172.00
2019-02-10T07:20:05.356Z,176.00
2019-02-10T07:21:58.342Z,212.00
2019-02-10T07:22:58.414Z,220.00
2019-02-10T07:24:51.363Z,268.00
2019-02-10T07:25:51.414Z,260.00
2019-02-10T07:27:44.391Z,280.00
2019-02-10T07:28:44.453Z,272.00
2019-02-10T07:30:37.443Z,304.00
2019-02-10T07:31:37.482Z,296.00
2019-02-10T07:33:30.468Z,308.00
2019-02-10T07:34:30.513Z,308.00
2019-02-10T07:36:23.487Z,300.00
2019-02-10T07:37:23.547Z,260.00
2019-02-10T07:39:16.526Z,248.00
2019-02-10T07:40:16.573Z,280.00
2019-02-10T07:42:09.555Z,364.00
2019-02-10T07:43:09.615Z,440.00
2019-02-10T07:45:02.605Z,488.00
2019-02-10T07:46:02.647Z,544.00
2019-02-10T07:47:55.627Z,536.00
2019-02-10T07:48:55.680Z,584.00
2019-02-10T07:50:48.667Z,656.00
2019-02-10T07:51:48.714Z,572.00
2019-02-10T07:53:41.702Z,412.00
2019-02-10T07:54:42.451Z,328.00
2019-02-10T07:56:34.722Z,356.00
2019-02-10T07:57:34.777Z,460.00
2019-02-10T07:59:27.764Z,612.00
2019-02-10T08:00:27.815Z,612.00
2019-02-10T08:02:20.789Z,520.00
2019-02-10T08:03:20.845Z,524.00
2019-02-10T08:05:13.828Z,440.00
2019-02-10T08:06:13.877Z,444.00
2019-02-10T08:08:06.882Z,500.00
2019-02-10T08:09:06.935Z,528.00
2019-02-10T08:10:59.915Z,624.00
2019-02-10T08:11:59.967Z,588.00
2019-02-10T08:13:52.951Z,564.00
2019-02-10T08:14:52.998Z,616.00
2019-02-10T08:16:45.990Z,584.00
2019-02-10T08:17:46.037Z,552.00
2019-02-10T08:19:39.017Z,544.00
2019-02-10T08:20:40.551Z,560.00
2019-02-10T08:22:32.041Z,624.00
2019-02-10T08:23:32.100Z,572.00
2019-02-10T08:25:25.085Z,740.00
2019-02-10T08:26:25.129Z,956.00
2019-02-10T08:28:18.105Z,912.00
2019-02-10T08:29:18.163Z,1364.00
2019-02-10T08:31:11.156Z,1000.00
2019-02-10T08:32:11.201Z,812.00
2019-02-10T08:34:04.178Z,688.00
2019-02-10T08:35:04.227Z,516.00
2019-02-10T08:36:57.208Z,620.00
2019-02-10T08:37:57.263Z,968.00
2019-02-10T08:39:50.261Z,988.00
2019-02-10T08:40:50.314Z,1144.00
2019-02-10T08:42:43.286Z,1132.00
2019-02-10T08:43:43.344Z,900.00
2019-02-10T08:45:36.328Z,724.00
2019-02-10T08:46:36.381Z,724.00
2019-02-10T08:48:29.374Z,864.00
2019-02-10T08:49:29.409Z,744.00
2019-02-10T08:51:22.397Z,772.00
2019-02-10T08:52:22.448Z,892.00
2019-02-10T08:54:15.421Z,976.00
2019-02-10T08:55:15.475Z,1068.00
2019-02-10T08:57:08.449Z,1160.00
2019-02-10T08:58:08.502Z,1360.00
2019-02-10T09:00:01.489Z,1192.00
2019-02-10T09:01:01.535Z,1044.00
2019-02-10T09:02:54.514Z,1396.00
2019-02-10T09:03:54.570Z,1380.00
2019-02-10T09:05:47.552Z,1320.00
2019-02-10T09:06:47.606Z,1396.00
2019-02-10T09:08:40.586Z,1068.00
2019-02-10T09:09:40.633Z,1200.00
2019-02-10T09:11:33.623Z,1076.00
2019-02-10T09:12:33.668Z,1232.00
2019-02-10T09:14:26.659Z,1092.00
2019-02-10T09:15:26.711Z,852.00
2019-02-10T09:17:19.684Z,1544.00
2019-02-10T09:18:19.757Z,1760.00
2019-02-10T09:20:12.714Z,1412.00
2019-02-10T09:21:12.772Z,1532.00
2019-02-10T09:23:05.761Z,1328.00
2019-02-10T09:24:05.808Z,1228.00
2019-02-10T09:25:58.802Z,1256.00
2019-02-10T09:26:58.856Z,1408.00
2019-02-10T09:28:51.826Z,1240.00
2019-02-10T09:29:51.877Z,1560.00
2019-02-10T09:31:44.869Z,2424.00
2019-02-10T09:32:44.929Z,1528.00
2019-02-10T09:34:37.915Z,2260.00
2019-02-10T09:35:37.948Z,1836.00
2019-02-10T09:37:30.926Z,1692.00
2019-02-10T09:38:30.976Z,1556.00
2019-02-10T09:40:23.967Z,2792.00
2019-02-10T09:41:24.017Z,3116.00
2019-02-10T09:43:16.999Z,3008.00
2019-02-10T09:44:17.056Z,3164.00
2019-02-10T09:46:10.039Z,2688.00
2019-02-10T09:47:10.088Z,2440.00
2019-02-10T09:49:03.580Z,1924.00
2019-02-10T09:50:03.697Z,1888.00
2019-02-10T09:51:58.105Z,2280.00
2019-02-10T09:52:58.155Z,2424.00
2019-02-10T09:54:51.148Z,2240.00
2019-02-10T09:55:51.194Z,2132.00
2019-02-10T09:57:44.165Z,2772.00
2019-02-10T09:58:44.210Z,2488.00
2019-02-10T10:00:37.207Z,2140.00
2019-02-10T10:01:37.260Z,1928.00
2019-02-10T10:03:30.234Z,1840.00
2019-02-10T10:04:30.298Z,2128.00
2019-02-10T10:06:23.272Z,2076.00
2019-02-10T10:07:23.320Z,1956.00
2019-02-10T10:09:19.559Z,2320.00
2019-02-10T10:10:16.356Z,2736.00
2019-02-10T10:12:09.890Z,2960.00
2019-02-10T10:13:09.900Z,2680.00
2019-02-10T10:15:02.902Z,1868.00
2019-02-10T10:16:02.940Z,1180.00
2019-02-10T10:17:55.920Z,1388.00
2019-02-10T10:18:55.991Z,1936.00
2019-02-10T10:20:48.961Z,2208.00
2019-02-10T10:21:49.017Z,1764.00
2019-02-10T10:23:41.987Z,1744.00
2019-02-10T10:24:50.206Z,1440.00
2019-02-10T10:26:35.048Z,2400.00
2019-02-10T10:27:35.099Z,2280.00
2019-02-10T10:29:28.603Z,1968.00
2019-02-10T10:30:28.643Z,1612.00
2019-02-10T10:32:21.623Z,1344.00
2019-02-10T10:33:21.674Z,1516.00
2019-02-10T10:35:14.670Z,1236.00
2019-02-10T10:36:14.704Z,1244.00
2019-02-10T10:38:08.196Z,1168.00
2019-02-10T10:39:08.246Z,1196.00
2019-02-10T10:41:01.230Z,1656.00
2019-02-10T10:42:01.292Z,1612.00
2019-02-10T10:43:54.255Z,1788.00
2019-02-10T10:44:54.313Z,1976.00
2019-02-10T10:46:47.287Z,2168.00
2019-02-10T10:47:47.347Z,2324.00
2019-02-10T10:49:40.323Z,4024.00
2019-02-10T10:50:40.378Z,3432.00
2019-02-10T10:52:33.365Z,2864.00
2019-02-10T10:53:33.416Z,3044.00
2019-02-10T10:55:26.419Z,2096.00
2019-02-10T10:56:26.449Z,2032.00
2019-02-10T10:58:19.424Z,1984.00
2019-02-10T10:59:19.481Z,2028.00
2019-02-10T11:01:12.473Z,1808.00
2019-02-10T11:02:12.522Z,1804.00
2019-02-10T11:04:05.502Z,1632.00
2019-02-10T11:05:05.556Z,1568.00
2019-02-10T11:06:58.546Z,1364.00
2019-02-10T11:07:58.592Z,1764.00
2019-02-10T11:09:51.581Z,1600.00
2019-02-10T11:10:51.637Z,1612.00
2019-02-10T11:12:44.620Z,1744.00
2019-02-10T11:13:44.670Z,1412.00
2019-02-10T11:15:37.678Z,2292.00
2019-02-10T11:16:37.712Z,1944.00
2019-02-10T11:18:30.685Z,1376.00
2019-02-10T11:19:30.744Z,1504.00
2019-02-10T11:21:23.729Z,1136.00
2019-02-10T11:22:23.805Z,996.00
2019-02-10T11:24:16.763Z,1848.00
2019-02-10T11:25:16.831Z,1368.00
2019-02-10T11:27:09.814Z,1172.00
2019-02-10T11:28:09.855Z,1240.00
2019-02-10T11:30:04.039Z,1452.00
2019-02-10T11:31:02.898Z,1172.00
2019-02-10T11:32:55.896Z,1504.00
2019-02-10T11:33:55.947Z,1628.00
2019-02-10T11:35:48.936Z,1924.00
2019-02-10T11:36:48.985Z,2036.00
2019-02-10T11:38:41.980Z,2204.00
2019-02-10T11:39:43.895Z,1456.00
2019-02-10T11:41:35.020Z,1224.00
2019-02-10T11:42:35.070Z,1188.00
2019-02-10T11:44:28.051Z,1396.00
2019-02-10T11:45:28.109Z,1032.00
2019-02-10T11:47:21.095Z,1468.00
2019-02-10T11:48:21.145Z,2028.00
2019-02-10T11:50:14.132Z,6180.00
2019-02-10T11:51:14.191Z,5088.00
2019-02-10T11:53:07.174Z,6432.00
2019-02-10T11:54:07.224Z,5624.00
2019-02-10T11:56:00.254Z,2712.00
2019-02-10T11:57:00.277Z,2564.00
2019-02-10T11:58:53.255Z,2168.00
2019-02-10T11:59:53.300Z,2340.00
2019-02-10T12:01:46.283Z,4020.00
2019-02-10T12:02:46.332Z,5684.00
2019-02-10T12:04:39.316Z,6616.00
2019-02-10T12:05:39.377Z,5564.00
2019-02-10T12:07:32.362Z,3736.00
2019-02-10T12:08:35.650Z,4328.00
2019-02-10T12:10:25.392Z,3952.00
2019-02-10T12:11:25.589Z,4408.00
2019-02-10T12:13:18.459Z,2876.00
2019-02-10T12:14:18.488Z,1932.00
2019-02-10T12:16:11.517Z,3200.00
2019-02-10T12:17:11.536Z,3504.00
2019-02-10T12:19:04.531Z,3648.00
2019-02-10T12:20:04.589Z,2360.00
2019-02-10T12:21:57.583Z,2608.00
2019-02-10T12:22:57.622Z,3436.00
2019-02-10T12:24:50.623Z,2932.00
2019-02-10T12:25:50.669Z,1656.00
2019-02-10T12:27:43.652Z,1848.00
2019-02-10T12:28:43.695Z,2012.00
2019-02-10T12:30:36.689Z,2348.00
2019-02-10T12:31:36.804Z,2792.00
2019-02-10T12:33:29.776Z,3808.00
2019-02-10T12:34:29.787Z,2920.00
2019-02-10T12:36:22.905Z,3548.00
2019-02-10T12:37:22.828Z,3816.00
2019-02-10T12:39:15.805Z,4372.00
2019-02-10T12:40:15.863Z,4452.00
2019-02-10T12:42:08.851Z,5084.00
2019-02-10T12:43:08.902Z,4984.00
2019-02-10T12:45:01.886Z,5472.00
2019-02-10T12:46:01.941Z,5696.00
2019-02-10T12:47:54.930Z,5900.00
2019-02-10T12:48:54.971Z,5796.00
2019-02-10T12:50:47.951Z,5412.00
2019-02-10T12:51:48.015Z,5208.00
2019-02-10T12:53:40.998Z,2876.00
2019-02-10T12:54:41.044Z,1828.00
2019-02-10T12:56:34.025Z,1448.00
2019-02-10T12:57:34.087Z,1388.00
2019-02-10T12:59:27.093Z,1232.00
2019-02-10T13:00:27.141Z,1036.00
2019-02-10T13:02:20.169Z,4232.00
2019-02-10T13:03:20.179Z,4508.00
2019-02-10T13:05:13.158Z,4532.00
2019-02-10T13:06:13.216Z,4512.00
2019-02-10T13:08:06.204Z,3948.00
2019-02-10T13:09:06.290Z,4088.00
2019-02-10T13:10:59.232Z,2976.00
2019-02-10T13:11:59.291Z,2448.00
2019-02-10T13:13:52.277Z,2320.00
2019-02-10T13:14:52.344Z,2860.00
2019-02-10T13:16:45.310Z,1904.00
2019-02-10T13:17:45.362Z,1088.00
2019-02-10T13:19:38.395Z,2180.00
2019-02-10T13:20:38.402Z,1704.00
2019-02-10T13:22:31.392Z,1012.00
2019-02-10T13:23:31.440Z,1300.00
2019-02-10T13:25:24.423Z,1284.00
2019-02-10T13:26:24.478Z,1708.00
2019-02-10T13:28:17.471Z,1188.00
2019-02-10T13:29:17.518Z,1880.00
2019-02-10T13:31:10.499Z,2568.00
2019-02-10T13:32:10.557Z,2724.00
2019-02-10T13:34:03.567Z,3352.00
2019-02-10T13:35:03.593Z,3296.00
2019-02-10T13:36:57.056Z,3392.00
2019-02-10T13:37:56.629Z,3400.00
2019-02-10T13:39:49.621Z,3120.00
2019-02-10T13:40:49.663Z,3632.00
2019-02-10T13:42:42.655Z,4020.00
2019-02-10T13:43:42.703Z,6292.00
2019-02-10T13:45:35.699Z,3596.00
2019-02-10T13:46:35.760Z,1736.00
2019-02-10T13:48:28.748Z,1716.00
2019-02-10T13:49:28.800Z,3000.00
2019-02-10T13:51:21.790Z,3060.00
2019-02-10T13:52:21.834Z,2876.00
2019-02-10T13:54:14.834Z,4500.00
2019-02-10T13:55:15.042Z,4048.00
2019-02-10T13:57:07.854Z,4468.00
2019-02-10T13:58:07.921Z,4164.00
2019-02-10T14:00:00.898Z,4388.00
2019-02-10T14:01:00.944Z,3548.00
2019-02-10T14:02:53.934Z,2832.00
2019-02-10T14:03:53.982Z,2208.00
2019-02-10T14:05:47.478Z,2376.00
2019-02-10T14:06:47.527Z,2748.00
2019-02-10T14:08:40.513Z,2336.00
2019-02-10T14:09:40.562Z,3176.00
2019-02-10T14:11:33.540Z,3224.00
2019-02-10T14:12:33.600Z,3524.00
2019-02-10T14:14:26.587Z,3484.00
2019-02-10T14:15:26.649Z,3400.00
2019-02-10T14:17:19.621Z,2396.00
2019-02-10T14:18:19.724Z,2144.00
2019-02-10T14:20:12.666Z,2660.00
2019-02-10T14:21:12.720Z,3104.00
2019-02-10T14:23:05.693Z,2244.00
2019-02-10T14:24:05.742Z,1968.00
2019-02-10T14:25:58.730Z,3224.00
2019-02-10T14:26:58.781Z,3308.00
2019-02-10T14:28:51.769Z,2800.00
2019-02-10T14:29:51.821Z,2888.00
2019-02-10T14:31:44.800Z,3108.00
2019-02-10T14:32:44.856Z,2864.00
2019-02-10T14:34:37.842Z,3100.00
2019-02-10T14:35:37.888Z,3028.00
2019-02-10T14:37:30.868Z,2868.00
2019-02-10T14:38:36.395Z,2692.00
2019-02-10T14:40:23.915Z,1992.00
2019-02-10T14:41:23.963Z,1756.00
2019-02-10T14:43:16.949Z,1764.00
2019-02-10T14:44:16.998Z,1792.00
2019-02-10T14:46:09.996Z,1712.00
2019-02-10T14:47:10.050Z,1716.00
2019-02-10T14:49:03.047Z,1860.00
2019-02-10T14:50:03.094Z,1732.00
2019-02-10T14:51:56.074Z,1392.00
2019-02-10T14:52:56.133Z,1224.00
2019-02-10T14:54:49.158Z,940.00
2019-02-10T14:55:49.173Z,800.00
2019-02-10T14:57:42.152Z,664.00
2019-02-10T14:58:43.347Z,664.00
2019-02-10T15:00:35.216Z,584.00
2019-02-10T15:01:36.795Z,604.00
2019-02-10T15:03:28.261Z,456.00
2019-02-10T15:04:28.315Z,500.00
2019-02-10T15:06:21.303Z,540.00
2019-02-10T15:07:25.110Z,568.00
2019-02-10T15:09:14.329Z,568.00
2019-02-10T15:10:14.381Z,500.00
2019-02-10T15:12:07.373Z,816.00
2019-02-10T15:13:07.458Z,904.00
2019-02-10T15:15:00.455Z,800.00
2019-02-10T15:16:00.449Z,728.00
2019-02-10T15:17:53.453Z,680.00
2019-02-10T15:18:53.513Z,640.00
2019-02-10T15:20:46.505Z,544.00
2019-02-10T15:21:46.551Z,408.00
2019-02-10T15:23:39.533Z,412.00
2019-02-10T15:24:39.586Z,396.00
2019-02-10T15:26:32.564Z,416.00
2019-02-10T15:27:32.623Z,420.00
2019-02-10T15:29:25.602Z,760.00
2019-02-10T15:30:25.658Z,772.00
2019-02-10T15:32:18.637Z,740.00
2019-02-10T15:33:18.688Z,868.00
2019-02-10T15:35:11.694Z,940.00
2019-02-10T15:36:11.745Z,892.00
2019-02-10T15:38:04.720Z,584.00
2019-02-10T15:39:04.779Z,428.00
2019-02-10T15:40:57.770Z,260.00
2019-02-10T15:41:57.815Z,208.00
2019-02-10T15:43:50.788Z,220.00
2019-02-10T15:44:50.846Z,324.00
2019-02-10T15:46:43.848Z,292.00
2019-02-10T15:47:43.902Z,224.00
2019-02-10T15:49:36.893Z,232.00
2019-02-10T15:50:36.936Z,216.00
2019-02-10T15:52:29.925Z,240.00
2019-02-10T15:53:29.982Z,164.00
2019-02-10T15:55:22.993Z,136.00
2019-02-10T15:56:23.010Z,104.00
2019-02-10T15:58:15.993Z,88.00
2019-02-10T15:59:16.062Z,68.00
2019-02-10T16:01:09.038Z,76.00
2019-02-10T16:02:09.084Z,48.00
2019-02-10T16:04:02.063Z,44.00
2019-02-10T16:05:02.119Z,44.00
2019-02-10T16:06:55.115Z,44.00
2019-02-10T16:07:55.166Z,64.00
2019-02-10T16:09:48.144Z,52.00
2019-02-10T16:10:48.200Z,56.00
2019-02-10T16:12:41.183Z,48.00
2019-02-10T16:13:41.233Z,36.00
2019-02-10T16:15:34.212Z,36.00
2019-02-10T16:16:34.270Z,24.00
2019-02-10T16:18:27.251Z,16.00
2019-02-10T16:19:27.302Z,16.00
2019-02-10T16:21:20.293Z,16.00
2019-02-10T16:22:20.361Z,20.00
2019-02-10T16:24:13.327Z,32.00
2019-02-10T16:25:13.376Z,40.00
2019-02-10T16:27:06.374Z,40.00
2019-02-10T16:28:06.409Z,40.00
2019-02-10T16:29:59.390Z,32.00
2019-02-10T16:30:59.473Z,28.00
2019-02-10T16:32:52.432Z,20.00
2019-02-10T16:33:52.490Z,16.00
2019-02-10T16:35:45.459Z,12.00
2019-02-10T16:36:45.514Z,12.00
2019-02-10T16:38:38.503Z,16.00
2019-02-10T16:39:38.552Z,12.00
2019-02-10T16:41:31.532Z,16.00
2019-02-10T16:42:31.593Z,8.00
2019-02-10T16:44:24.561Z,8.00
2019-02-10T16:45:24.645Z,4.00
2019-02-10T16:47:17.618Z,4.00
2019-02-10T16:48:17.656Z,0.00
2019-02-10T16:50:10.642Z,4.00
2019-02-10T16:51:10.688Z,4.00
2019-02-10T16:53:03.682Z,0.00
2019-02-10T16:54:03.723Z,0.00
2019-02-10T16:55:56.699Z,0.00
2019-02-10T16:56:56.754Z,0.00
2019-02-10T16:58:49.795Z,0.00
2019-02-10T16:59:49.798Z,0.00
2019-02-10T17:01:42.777Z,0.00
2019-02-10T17:02:42.850Z,0.00
2019-02-10T17:04:35.803Z,0.00
2019-02-10T17:05:35.877Z,0.00
2019-02-10T17:07:28.846Z,0.00
2019-02-10T17:08:28.893Z,0.00
2019-02-10T17:10:21.872Z,0.00
2019-02-10T17:11:21.927Z,0.00
2019-02-10T17:13:14.935Z,0.00
2019-02-10T17:14:14.969Z,0.00
2019-02-10T17:16:07.943Z,0.00
2019-02-10T17:17:08.002Z,0.00
2019-02-10T17:19:00.983Z,0.00
2019-02-10T17:20:01.028Z,0.00
2019-02-10T17:21:54.011Z,0.00
2019-02-10T17:22:54.060Z,0.00
2019-02-10T17:24:47.044Z,0.00
2019-02-10T17:25:47.098Z,0.00
2019-02-10T17:27:40.083Z,0.00
2019-02-10T17:28:40.130Z,0.00
2019-02-10T17:30:33.162Z,0.00
2019-02-10T17:31:33.173Z,0.00
2019-02-10T17:33:26.186Z,0.00
2019-02-10T17:34:26.203Z,0.00
2019-02-10T17:36:19.199Z,0.00
2019-02-10T17:37:19.303Z,0.00
2019-02-10T17:39:12.234Z,0.00
2019-02-10T17:40:12.310Z,0.00
2019-02-10T17:42:05.272Z,0.00
2019-02-10T17:43:05.318Z,0.00
2019-02-10T17:44:58.300Z,0.00
2019-02-10T17:45:58.355Z,0.00
2019-02-10T17:47:51.336Z,0.00
2019-02-10T17:48:51.386Z,0.00
2019-02-10T17:50:44.365Z,0.00
2019-02-10T17:51:44.421Z,0.00
2019-02-10T17:53:37.408Z,0.00
2019-02-10T17:54:37.458Z,0.00
2019-02-10T17:56:30.434Z,0.00
2019-02-10T17:57:30.490Z,0.00
2019-02-10T17:59:23.472Z,0.00
2019-02-10T18:00:23.526Z,0.00
2019-02-10T18:02:16.506Z,0.00
2019-02-10T18:03:18.374Z,0.00
2019-02-10T18:05:09.551Z,0.00
2019-02-10T18:06:09.603Z,0.00
2019-02-10T18:08:02.584Z,0.00
2019-02-10T18:09:02.633Z,0.00
2019-02-10T18:10:55.604Z,0.00
2019-02-10T18:11:55.660Z,0.00
2019-02-10T18:13:48.641Z,0.00
2019-02-10T18:14:48.689Z,0.00
2019-02-10T18:16:41.674Z,0.00
2019-02-10T18:17:41.721Z,0.00
2019-02-10T18:19:34.707Z,0.00
2019-02-10T18:20:34.755Z,0.00
2019-02-10T18:22:27.740Z,0.00